createdAt,value
2022-08-10T00:03:04.467Z,27.10
2022-08-10T00:08:08.690Z,27.10
2022-08-10T00:13:11.578Z,27.10
2022-08-10T00:18:34.212Z,27.00
2022-08-10T00:23:39.566Z,27.10
2022-08-10T00:28:42.505Z,27.00
2022-08-10T00:33:45.429Z,27.00
2022-08-10T00:38:49.661Z,27.00
2022-08-10T00:43:52.541Z,26.90
2022-08-10T00:49:00.077Z,26.90
2022-08-10T00:54:06.594Z,26.60
2022-08-10T00:59:10.567Z,26.20
2022-08-10T01:04:45.158Z,25.70
2022-08-10T01:09:44.972Z,25.40
2022-08-10T01:15:05.997Z,25.40
2022-08-10T01:20:30.046Z,25.00
2022-08-10T01:26:11.156Z,24.90
2022-08-10T01:31:21.039Z,24.80
2022-08-10T01:36:31.960Z,24.40
2022-08-10T01:41:45.615Z,23.80
2022-08-10T01:46:57.187Z,24.10
2022-08-10T01:52:01.610Z,24.00
2022-08-10T01:57:05.991Z,23.50
2022-08-10T02:02:12.897Z,23.80
2022-08-10T02:07:19.717Z,23.70
2022-08-10T02:12:25.469Z,23.70
2022-08-10T02:17:58.523Z,23.60
2022-08-10T02:23:00.838Z,23.40
2022-08-10T02:28:05.970Z,23.00
2022-08-10T02:33:11.579Z,23.40
2022-08-10T02:38:21.207Z,23.00
2022-08-10T02:45:26.509Z,23.10
2022-08-10T02:49:01.851Z,22.70
2022-08-10T02:54:09.756Z,22.70
2022-08-10T02:59:17.530Z,22.40
2022-08-10T03:04:55.138Z,22.00
2022-08-10T03:09:48.985Z,22.20
2022-08-10T03:14:52.237Z,22.50
2022-08-10T03:20:33.864Z,22.70
2022-08-10T03:25:24.846Z,22.40
2022-08-10T03:30:32.571Z,22.30
2022-08-10T03:35:37.540Z,22.10
2022-08-10T03:40:46.432Z,22.20
2022-08-10T03:45:54.964Z,21.80
2022-08-10T03:51:02.982Z,21.50
2022-08-10T03:56:30.252Z,20.90
2022-08-10T04:02:43.757Z,21.20
2022-08-10T04:06:56.598Z,21.30
2022-08-10T04:11:59.635Z,21.40
2022-08-10T04:17:02.522Z,21.50
2022-08-10T04:22:11.811Z,21.30
2022-08-10T04:27:15.858Z,21.20
2022-08-10T04:32:22.021Z,21.30
2022-08-10T04:37:27.536Z,21.00
2022-08-10T04:42:33.197Z,21.10
2022-08-10T04:48:00.939Z,21.20
2022-08-10T04:53:00.220Z,21.10
2022-08-10T04:58:03.167Z,21.10
2022-08-10T05:03:07.220Z,20.90
2022-08-10T05:08:11.450Z,21.00
2022-08-10T05:13:14.482Z,21.30
2022-08-10T05:18:17.439Z,20.90
2022-08-10T05:23:21.696Z,21.10
2022-08-10T05:28:27.811Z,21.20
2022-08-10T05:33:33.967Z,21.20
2022-08-10T05:38:39.643Z,21.40
2022-08-10T05:43:43.189Z,21.20
2022-08-10T05:48:58.639Z,21.40
2022-08-10T05:54:06.894Z,21.60
2022-08-10T05:59:10.345Z,21.90
2022-08-10T06:04:21.009Z,21.80
2022-08-10T06:09:27.089Z,22.10
2022-08-10T06:15:05.989Z,22.20
2022-08-10T06:20:13.378Z,22.20
2022-08-10T06:26:09.097Z,22.30
2022-08-10T06:30:41.624Z,22.10
2022-08-10T06:35:45.249Z,22.40
2022-08-10T06:40:50.285Z,22.60
2022-08-10T06:46:07.851Z,22.80
2022-08-10T06:51:18.705Z,23.00
2022-08-10T06:56:43.729Z,23.30
2022-08-10T07:02:14.107Z,22.80
2022-08-10T07:07:24.268Z,23.00
2022-08-10T07:12:32.040Z,23.20
2022-08-10T07:17:39.426Z,23.80
2022-08-10T07:23:01.598Z,23.90
2022-08-10T07:28:09.366Z,24.20
2022-08-10T07:33:21.484Z,24.10
2022-08-10T07:38:32.704Z,24.30
2022-08-10T07:43:41.511Z,24.60
2022-08-10T07:48:53.856Z,24.80
2022-08-10T07:53:57.485Z,25.10
2022-08-10T07:59:07.308Z,25.30
2022-08-10T08:04:13.566Z,25.80
2022-08-10T08:09:39.558Z,26.10
2022-08-10T08:16:14.381Z,26.70
2022-08-10T08:20:31.090Z,26.40
2022-08-10T08:25:34.696Z,26.70
2022-08-10T08:30:45.719Z,26.80
2022-08-10T08:35:57.040Z,27.30
2022-08-10T08:41:09.822Z,27.70
2022-08-10T08:46:57.150Z,27.80
2022-08-10T08:52:18.567Z,28.00
2022-08-10T08:57:50.543Z,28.20
2022-08-10T09:03:27.548Z,28.00
2022-08-10T09:09:13.664Z,28.30
2022-08-10T09:14:26.588Z,28.40
2022-08-10T09:19:39.038Z,28.60
2022-08-10T09:24:46.028Z,28.80
2022-08-10T09:29:58.961Z,28.60
2022-08-10T09:36:19.403Z,28.30
2022-08-10T09:41:00.641Z,28.70
2022-08-10T09:46:27.511Z,28.90
2022-08-10T09:51:45.923Z,29.00
2022-08-10T09:57:43.368Z,28.80
2022-08-10T10:02:43.353Z,29.00
2022-08-10T10:07:56.661Z,28.90
2022-08-10T10:13:09.127Z,29.20
2022-08-10T10:18:34.162Z,28.90
2022-08-10T10:24:21.207Z,28.80
2022-08-10T10:29:57.541Z,29.10
2022-08-10T10:35:00.948Z,28.90
2022-08-10T10:40:23.240Z,29.00
2022-08-10T10:45:38.990Z,29.50
2022-08-10T10:50:59.059Z,29.80
2022-08-10T10:56:14.159Z,29.80
2022-08-10T11:01:34.992Z,29.30
2022-08-10T11:06:51.464Z,29.40
2022-08-10T11:12:03.014Z,29.90
2022-08-10T11:17:22.502Z,29.80
2022-08-10T11:22:45.904Z,30.10
2022-08-10T11:28:00.548Z,30.30
2022-08-10T11:33:13.332Z,30.50
2022-08-10T11:38:39.836Z,30.70
2022-08-10T11:44:06.119Z,30.60
2022-08-10T11:49:18.891Z,30.50
2022-08-10T11:54:31.793Z,30.60
2022-08-10T12:00:08.613Z,30.30
2022-08-10T12:05:51.936Z,30.30
2022-08-10T12:11:08.291Z,30.40
2022-08-10T12:16:28.808Z,30.40
2022-08-10T12:21:44.024Z,30.60
2022-08-10T12:27:01.082Z,31.00
2022-08-10T12:32:13.667Z,30.70
2022-08-10T12:37:33.701Z,30.60
2022-08-10T12:43:01.625Z,30.80
2022-08-10T12:48:31.008Z,31.00
2022-08-10T12:53:59.264Z,30.70
2022-08-10T12:59:13.317Z,30.90
2022-08-10T13:04:27.182Z,31.10
2022-08-10T13:09:56.421Z,31.30
2022-08-10T13:15:45.126Z,31.20
2022-08-10T13:20:48.895Z,31.30
2022-08-10T13:25:58.121Z,31.60
2022-08-10T13:31:11.569Z,31.20
2022-08-10T13:36:28.347Z,31.20
2022-08-10T13:41:36.183Z,31.40
2022-08-10T13:46:44.587Z,31.40
2022-08-10T13:51:57.034Z,31.40
2022-08-10T13:57:01.962Z,31.10
2022-08-10T14:02:07.963Z,31.30
2022-08-10T14:07:15.101Z,31.30
2022-08-10T14:12:20.319Z,31.50
2022-08-10T14:17:42.614Z,31.50
2022-08-10T14:22:51.689Z,31.70
2022-08-10T14:28:02.172Z,31.90
2022-08-10T14:33:08.685Z,31.90
2022-08-10T14:38:20.821Z,31.90
2022-08-10T14:43:29.095Z,31.90
2022-08-10T14:48:37.006Z,31.60
2022-08-10T14:54:03.511Z,31.40
2022-08-10T14:59:09.312Z,31.60
2022-08-10T15:04:15.051Z,31.40
2022-08-10T15:09:24.449Z,31.80
2022-08-10T15:14:43.725Z,31.70
2022-08-10T15:20:02.142Z,31.70
2022-08-10T15:25:17.893Z,31.90
2022-08-10T15:30:30.273Z,31.60
2022-08-10T15:35:54.578Z,31.90
2022-08-10T15:41:12.897Z,31.90
2022-08-10T15:46:30.019Z,32.00
2022-08-10T15:51:54.246Z,31.70
2022-08-10T15:57:04.128Z,31.60
2022-08-10T16:02:28.554Z,31.60
2022-08-10T16:07:45.770Z,31.40
2022-08-10T16:12:59.800Z,31.40
2022-08-10T16:18:09.303Z,31.40
2022-08-10T16:23:15.650Z,31.60
2022-08-10T16:28:23.058Z,31.70
2022-08-10T16:33:53.344Z,31.90
2022-08-10T16:39:01.632Z,31.70
2022-08-10T16:44:07.840Z,32.20
2022-08-10T16:49:11.847Z,32.40
2022-08-10T16:54:24.841Z,32.00
2022-08-10T16:59:35.324Z,31.70
2022-08-10T17:04:43.843Z,31.70
2022-08-10T17:09:50.437Z,32.00
2022-08-10T17:15:10.369Z,32.00
2022-08-10T17:20:30.548Z,32.10
2022-08-10T17:25:48.826Z,32.50
2022-08-10T17:31:01.811Z,32.60
2022-08-10T17:36:06.476Z,32.40
2022-08-10T17:41:12.619Z,32.50
2022-08-10T17:46:17.437Z,32.10
2022-08-10T17:51:20.802Z,32.20
2022-08-10T17:56:25.279Z,32.50
2022-08-10T18:01:40.445Z,32.30
2022-08-10T18:06:45.664Z,32.10
2022-08-10T18:11:51.439Z,32.30
2022-08-10T18:16:58.483Z,32.00
2022-08-10T18:22:04.609Z,32.00
2022-08-10T18:27:09.888Z,31.60
2022-08-10T18:32:15.626Z,31.90
2022-08-10T18:37:22.169Z,32.00
2022-08-10T18:42:32.196Z,31.40
2022-08-10T18:47:56.021Z,31.40
2022-08-10T18:53:09.259Z,31.50
2022-08-10T18:58:37.802Z,31.40
2022-08-10T19:04:00.127Z,31.30
2022-08-10T19:09:46.823Z,31.10
2022-08-10T19:14:40.976Z,30.90
2022-08-10T19:19:57.262Z,30.80
2022-08-10T19:25:05.585Z,30.70
2022-08-10T19:30:13.469Z,30.50
2022-08-10T19:35:29.021Z,30.40
2022-08-10T19:40:44.694Z,30.20
2022-08-10T19:46:02.631Z,30.10
2022-08-10T19:51:14.595Z,30.00
2022-08-10T19:56:34.024Z,29.90
2022-08-10T20:01:55.287Z,29.80
2022-08-10T20:07:10.944Z,29.60
2022-08-10T20:12:19.905Z,29.50
2022-08-10T20:17:30.241Z,29.40
2022-08-10T20:23:05.598Z,29.20
2022-08-10T20:28:16.162Z,29.10
2022-08-10T20:33:28.167Z,29.00
2022-08-10T20:38:39.446Z,29.00
2022-08-10T20:43:49.799Z,28.80
2022-08-10T20:48:58.756Z,28.80
2022-08-10T20:54:07.595Z,28.60
2022-08-10T20:59:33.525Z,28.60
2022-08-10T21:04:51.373Z,28.30
2022-08-10T21:10:04.409Z,28.30
2022-08-10T21:15:19.992Z,28.30
2022-08-10T21:20:47.255Z,28.20
2022-08-10T21:26:07.350Z,28.10
2022-08-10T21:31:38.234Z,28.10
2022-08-10T21:36:50.625Z,28.00
2022-08-10T21:42:27.807Z,27.80
2022-08-10T21:48:16.656Z,27.70
2022-08-10T21:53:44.594Z,27.70
2022-08-10T21:59:12.932Z,27.80
2022-08-10T22:04:34.808Z,27.70
2022-08-10T22:10:02.172Z,27.60
2022-08-10T22:16:03.240Z,27.50
2022-08-10T22:21:20.546Z,27.40
2022-08-10T22:27:00.911Z,27.50
2022-08-10T22:32:32.515Z,27.10
2022-08-10T22:38:07.690Z,26.90
2022-08-10T22:43:40.055Z,27.00
2022-08-10T22:49:01.089Z,26.70
2022-08-10T22:54:31.657Z,26.40
2022-08-10T22:59:34.749Z,26.20
2022-08-10T23:04:45.127Z,26.10
2022-08-10T23:09:57.793Z,26.00
2022-08-10T23:15:20.779Z,26.00
2022-08-10T23:20:26.895Z,25.90
2022-08-10T23:25:32.920Z,25.80
2022-08-10T23:30:37.743Z,25.80
2022-08-10T23:36:28.132Z,25.90
2022-08-10T23:41:12.056Z,26.00
2022-08-10T23:46:16.926Z,26.00
2022-08-10T23:51:54.720Z,26.00
2022-08-10T23:57:01.386Z,25.90
